createdAt,value
2023-03-06T00:01:26.654Z,5.60
2023-03-06T00:06:29.939Z,5.20
2023-03-06T00:11:33.209Z,4.90
2023-03-06T00:16:36.693Z,6.00
2023-03-06T00:21:42.920Z,4.20
2023-03-06T00:26:46.647Z,4.90
2023-03-06T00:31:49.972Z,5.30
2023-03-06T00:36:53.776Z,5.70
2023-03-06T00:41:57.142Z,5.30
2023-03-06T00:47:00.935Z,6.20
2023-03-06T00:52:04.434Z,4.50
2023-03-06T00:57:08.673Z,5.80
2023-03-06T01:02:12.759Z,5.00
2023-03-06T01:07:16.150Z,5.20
2023-03-06T01:12:20.503Z,5.60
2023-03-06T01:17:25.790Z,4.70
2023-03-06T01:22:29.071Z,5.00
2023-03-06T01:27:32.381Z,3.90
2023-03-06T01:32:35.658Z,5.60
2023-03-06T01:37:39.610Z,6.30
2023-03-06T01:42:43.243Z,5.50
2023-03-06T01:47:46.501Z,5.00
2023-03-06T01:52:56.581Z,4.40
2023-03-06T01:58:04.700Z,3.80
2023-03-06T02:03:22.738Z,3.90
2023-03-06T02:08:27.497Z,4.80
2023-03-06T02:13:31.242Z,4.30
2023-03-06T02:18:35.832Z,4.30
2023-03-06T02:23:54.878Z,3.90
2023-03-06T02:28:59.550Z,4.00
2023-03-06T02:34:05.711Z,4.60
2023-03-06T02:39:09.224Z,4.60
2023-03-06T02:44:12.490Z,3.50
2023-03-06T02:49:15.720Z,3.90
2023-03-06T02:54:18.978Z,3.30
2023-03-06T02:59:22.343Z,4.20
2023-03-06T03:04:26.031Z,3.60
2023-03-06T03:09:29.313Z,3.80
2023-03-06T03:14:32.623Z,3.40
2023-03-06T03:19:35.908Z,3.10
2023-03-06T03:24:40.376Z,3.60
2023-03-06T03:29:43.727Z,4.10
2023-03-06T03:34:46.971Z,3.60
2023-03-06T03:39:50.384Z,2.20
2023-03-06T03:44:53.615Z,2.20
2023-03-06T03:49:57.036Z,3.20
2023-03-06T03:55:00.389Z,3.20
2023-03-06T04:00:04.331Z,2.70
2023-03-06T04:05:08.095Z,3.10
2023-03-06T04:10:13.363Z,3.00
2023-03-06T04:15:16.710Z,2.90
2023-03-06T04:20:20.902Z,3.00
2023-03-06T04:25:24.321Z,3.00
2023-03-06T04:30:27.628Z,3.00
2023-03-06T04:35:30.976Z,3.80
2023-03-06T04:40:35.736Z,3.30
2023-03-06T04:45:39.182Z,3.60
2023-03-06T04:50:42.619Z,2.50
2023-03-06T04:55:45.847Z,3.80
2023-03-06T05:00:49.093Z,4.00
2023-03-06T05:05:52.382Z,3.40
2023-03-06T05:10:58.490Z,2.30
2023-03-06T05:16:06.653Z,3.60
2023-03-06T05:21:10.467Z,3.30
2023-03-06T05:26:15.609Z,3.60
2023-03-06T05:31:18.853Z,3.80
2023-03-06T05:36:22.192Z,4.90
2023-03-06T05:41:25.464Z,4.00
2023-03-06T05:46:28.874Z,3.30
2023-03-06T05:51:32.194Z,3.90
2023-03-06T05:56:35.490Z,4.50
2023-03-06T06:01:38.741Z,4.90
2023-03-06T06:06:42.530Z,5.50
2023-03-06T06:11:45.766Z,4.90
2023-03-06T06:16:50.053Z,4.50
2023-03-06T06:21:54.645Z,3.40
2023-03-06T06:26:59.662Z,4.20
2023-03-06T06:32:03.807Z,4.10
2023-03-06T06:37:07.201Z,4.60
2023-03-06T06:42:29.301Z,3.20
2023-03-06T06:47:34.580Z,3.70
2023-03-06T06:52:37.987Z,3.80
2023-03-06T06:57:42.638Z,3.20
2023-03-06T07:02:49.580Z,3.50
2023-03-06T07:07:53.518Z,3.20
2023-03-06T07:12:57.750Z,3.80
2023-03-06T07:18:01.800Z,3.70
2023-03-06T07:23:08.973Z,4.80
2023-03-06T07:28:12.611Z,6.80
2023-03-06T07:33:16.405Z,9.20
2023-03-06T07:38:22.906Z,9.50
2023-03-06T07:43:26.689Z,11.80
2023-03-06T07:48:37.973Z,15.60
2023-03-06T07:53:41.535Z,9.10
2023-03-06T07:58:46.777Z,6.80
2023-03-06T08:03:51.123Z,9.70
2023-03-06T08:08:57.446Z,6.60
2023-03-06T08:14:01.361Z,5.80
2023-03-06T08:19:04.655Z,7.90
2023-03-06T08:24:08.676Z,6.30
2023-03-06T08:29:12.138Z,4.90
2023-03-06T08:34:18.130Z,5.60
2023-03-06T08:39:21.965Z,3.60
2023-03-06T08:44:25.169Z,3.50
2023-03-06T08:49:28.597Z,4.40
2023-03-06T08:54:32.173Z,4.70
2023-03-06T08:59:37.290Z,4.40
2023-03-06T09:04:40.699Z,5.00
2023-03-06T09:09:44.003Z,4.20
2023-03-06T09:14:47.362Z,5.10
2023-03-06T09:19:51.309Z,2.90
2023-03-06T09:24:54.665Z,3.10
2023-03-06T09:29:58.053Z,4.60
2023-03-06T09:35:01.474Z,6.50
2023-03-06T09:40:07.897Z,3.80
2023-03-06T09:45:14.624Z,3.00
2023-03-06T09:50:20.850Z,3.20
2023-03-06T09:55:31.643Z,1.70
2023-03-06T10:00:44.254Z,1.90
2023-03-06T10:06:13.680Z,1.90
2023-03-06T10:11:37.189Z,1.50
2023-03-06T10:16:43.898Z,1.80
2023-03-06T10:22:09.811Z,4.00
2023-03-06T10:27:32.015Z,3.80
2023-03-06T10:32:51.548Z,2.30
2023-03-06T10:38:21.280Z,1.70
2023-03-06T10:43:25.593Z,1.50
2023-03-06T10:48:33.068Z,1.50
2023-03-06T10:53:36.452Z,1.70
2023-03-06T10:58:39.693Z,3.10
2023-03-06T11:03:48.226Z,2.50
2023-03-06T11:08:51.593Z,1.60
2023-03-06T11:13:59.514Z,1.80
2023-03-06T11:19:07.429Z,3.30
2023-03-06T11:24:20.574Z,1.50
2023-03-06T11:29:33.078Z,1.20
2023-03-06T11:34:44.166Z,0.90
2023-03-06T11:39:53.687Z,1.10
2023-03-06T11:45:37.577Z,0.80
2023-03-06T11:50:46.652Z,0.80
2023-03-06T11:55:59.190Z,1.00
2023-03-06T12:01:28.607Z,2.30
2023-03-06T12:06:38.000Z,1.40
2023-03-06T12:11:41.169Z,0.90
2023-03-06T12:17:00.583Z,1.90
2023-03-06T12:22:40.627Z,1.90
2023-03-06T12:27:54.381Z,2.70
2023-03-06T12:33:04.269Z,2.80
2023-03-06T12:38:17.355Z,1.50
2023-03-06T12:43:51.754Z,1.00
2023-03-06T12:49:09.093Z,1.70
2023-03-06T12:54:14.577Z,1.30
2023-03-06T12:59:42.822Z,2.10
2023-03-06T13:05:17.279Z,0.70
2023-03-06T13:10:26.242Z,1.30
2023-03-06T13:15:37.390Z,0.90
2023-03-06T13:20:44.734Z,1.50
2023-03-06T13:25:51.110Z,0.90
2023-03-06T13:30:54.667Z,0.70
2023-03-06T13:35:59.735Z,1.20
2023-03-06T13:41:32.511Z,1.40
2023-03-06T13:46:38.597Z,1.70
2023-03-06T13:51:54.191Z,1.90
2023-03-06T13:57:19.198Z,1.60
2023-03-06T14:02:41.139Z,2.50
2023-03-06T14:07:45.970Z,2.20
2023-03-06T14:12:49.274Z,2.10
2023-03-06T14:18:06.631Z,2.80
2023-03-06T14:23:27.599Z,3.50
2023-03-06T14:28:35.461Z,5.80
2023-03-06T14:34:01.185Z,5.50
2023-03-06T14:39:38.447Z,10.20
2023-03-06T14:44:42.327Z,3.70
2023-03-06T14:49:45.545Z,2.70
2023-03-06T14:54:49.958Z,5.60
2023-03-06T14:59:59.355Z,2.00
2023-03-06T15:05:13.134Z,3.40
2023-03-06T15:10:25.885Z,5.20
2023-03-06T15:15:33.127Z,3.80
2023-03-06T15:20:42.084Z,3.70
2023-03-06T15:26:20.515Z,4.60
2023-03-06T15:31:28.169Z,5.00
2023-03-06T15:36:36.804Z,4.40
2023-03-06T15:41:42.170Z,5.90
2023-03-06T15:46:45.569Z,6.30
2023-03-06T15:51:48.851Z,6.00
2023-03-06T15:56:52.509Z,6.60
2023-03-06T16:01:55.847Z,6.50
2023-03-06T16:06:59.140Z,7.10
2023-03-06T16:12:03.299Z,8.50
2023-03-06T16:17:06.630Z,7.40
2023-03-06T16:22:10.529Z,7.50
2023-03-06T16:27:19.309Z,9.20
2023-03-06T16:32:27.721Z,8.90
2023-03-06T16:37:32.667Z,5.10
2023-03-06T16:42:35.921Z,5.60
2023-03-06T16:47:39.276Z,6.60
2023-03-06T16:52:42.550Z,6.90
2023-03-06T16:57:46.318Z,6.30
2023-03-06T17:02:50.820Z,5.80
2023-03-06T17:07:54.390Z,6.30
2023-03-06T17:12:58.020Z,6.60
2023-03-06T17:18:01.364Z,11.10
2023-03-06T17:23:04.657Z,10.70
2023-03-06T17:28:08.113Z,16.10
2023-03-06T17:33:11.312Z,15.20
2023-03-06T17:38:14.603Z,14.40
2023-03-06T17:43:18.553Z,14.00
2023-03-06T17:48:22.007Z,14.90
2023-03-06T17:53:25.555Z,14.00
2023-03-06T17:58:31.782Z,14.70
2023-03-06T18:03:38.500Z,15.90
2023-03-06T18:08:42.584Z,14.30
2023-03-06T18:13:46.813Z,14.30
2023-03-06T18:18:55.396Z,17.40
2023-03-06T18:23:58.735Z,15.70
2023-03-06T18:29:04.922Z,19.80
2023-03-06T18:34:14.072Z,16.80
2023-03-06T18:39:17.521Z,16.50
2023-03-06T18:44:20.810Z,12.60
2023-03-06T18:49:24.213Z,11.70
2023-03-06T18:54:28.946Z,11.90
2023-03-06T18:59:32.421Z,11.50
2023-03-06T19:04:38.244Z,9.30
2023-03-06T19:09:43.657Z,9.80
2023-03-06T19:14:46.942Z,9.20
2023-03-06T19:19:51.485Z,11.10
2023-03-06T19:24:54.815Z,11.40
2023-03-06T19:29:58.259Z,11.00
2023-03-06T19:35:01.868Z,12.90
2023-03-06T19:40:06.252Z,11.90
2023-03-06T19:45:10.018Z,19.10
2023-03-06T19:50:13.330Z,19.60
2023-03-06T19:55:17.103Z,23.70
2023-03-06T20:00:21.477Z,30.50
2023-03-06T20:05:24.958Z,34.80
2023-03-06T20:10:28.255Z,32.10
2023-03-06T20:15:31.639Z,26.50
2023-03-06T20:20:35.039Z,26.80
2023-03-06T20:25:38.381Z,22.10
2023-03-06T20:30:42.625Z,19.60
2023-03-06T20:35:46.018Z,12.10
2023-03-06T20:40:49.443Z,14.60
2023-03-06T20:46:01.051Z,14.60
2023-03-06T20:51:07.760Z,14.30
2023-03-06T20:56:16.271Z,10.30
2023-03-06T21:01:28.310Z,13.70
2023-03-06T21:06:32.709Z,10.10
2023-03-06T21:11:36.042Z,11.60
2023-03-06T21:16:39.352Z,14.30
2023-03-06T21:21:42.852Z,14.70
2023-03-06T21:26:46.211Z,14.40
2023-03-06T21:31:49.692Z,15.00
2023-03-06T21:36:53.109Z,15.60
2023-03-06T21:41:56.701Z,10.80
2023-03-06T21:47:00.788Z,15.90
2023-03-06T21:52:04.941Z,13.60
2023-03-06T21:57:08.520Z,15.90
2023-03-06T22:02:12.033Z,11.60
2023-03-06T22:07:16.142Z,12.10
2023-03-06T22:12:19.738Z,11.80
2023-03-06T22:17:23.137Z,12.30
2023-03-06T22:22:27.076Z,13.70
2023-03-06T22:27:30.434Z,11.40
2023-03-06T22:32:33.890Z,16.10
2023-03-06T22:37:37.577Z,17.00
2023-03-06T22:42:40.799Z,16.70
2023-03-06T22:47:44.438Z,15.10
2023-03-06T22:52:47.728Z,13.70
2023-03-06T22:57:51.536Z,15.80
2023-03-06T23:02:55.389Z,16.40
2023-03-06T23:07:58.696Z,17.20
2023-03-06T23:13:01.977Z,15.70
2023-03-06T23:18:05.666Z,15.40
2023-03-06T23:23:10.079Z,16.50
2023-03-06T23:28:13.331Z,17.60
2023-03-06T23:33:16.628Z,18.60
2023-03-06T23:38:19.954Z,18.20
2023-03-06T23:43:23.193Z,17.90
2023-03-06T23:48:27.322Z,16.80
2023-03-06T23:53:30.564Z,17.00
2023-03-06T23:58:34.226Z,17.80
